createdAt,value
2023-09-15T00:02:52.821Z,19.90
2023-09-15T00:08:13.875Z,19.80
2023-09-15T00:19:38.530Z,21.00
2023-09-15T00:22:05.456Z,19.70
2023-09-15T00:24:32.250Z,19.60
2023-09-15T00:26:59.511Z,19.60
2023-09-15T00:29:27.132Z,19.60
2023-09-15T00:31:54.086Z,19.60
2023-09-15T00:34:20.849Z,19.50
2023-09-15T00:36:50.264Z,19.50
2023-09-15T00:39:17.037Z,19.50
2023-09-15T00:41:43.709Z,19.40
2023-09-15T00:44:10.408Z,19.40
2023-09-15T00:46:37.198Z,19.40
2023-09-15T00:49:04.621Z,19.30
2023-09-15T00:51:31.778Z,19.30
2023-09-15T00:53:58.646Z,19.30
2023-09-15T00:56:25.887Z,19.30
2023-09-15T00:58:52.675Z,19.20
2023-09-15T01:01:19.576Z,19.20
2023-09-15T01:03:47.359Z,19.20
2023-09-15T01:06:14.664Z,19.20
2023-09-15T01:08:42.944Z,19.20
2023-09-15T01:11:11.251Z,19.10
2023-09-15T01:13:37.971Z,19.10
2023-09-15T01:16:20.014Z,19.00
2023-09-15T01:18:57.501Z,19.00
2023-09-15T01:21:34.060Z,19.00
2023-09-15T01:24:30.068Z,19.00
2023-09-15T01:27:35.255Z,18.90
2023-09-15T01:30:03.509Z,18.90
2023-09-15T01:32:30.448Z,18.90
2023-09-15T01:34:57.189Z,18.80
2023-09-15T01:37:25.082Z,18.80
2023-09-15T01:39:53.822Z,18.80
2023-09-15T01:42:20.849Z,18.80
2023-09-15T01:44:47.723Z,18.70
2023-09-15T01:47:18.972Z,18.70
2023-09-15T01:49:46.290Z,18.70
2023-09-15T01:52:14.164Z,18.70
2023-09-15T01:54:44.104Z,18.60
2023-09-15T01:57:11.399Z,18.60
2023-09-15T01:59:38.142Z,18.50
2023-09-15T02:02:04.934Z,18.60
2023-09-15T02:04:31.740Z,18.50
2023-09-15T02:06:58.871Z,18.50
2023-09-15T02:09:25.585Z,18.50
2023-09-15T02:11:52.320Z,18.50
2023-09-15T02:14:19.006Z,18.40
2023-09-15T02:16:45.739Z,18.40
2023-09-15T02:19:13.270Z,18.30
2023-09-15T02:21:40.022Z,18.30
2023-09-15T02:24:06.952Z,18.30
2023-09-15T02:26:33.696Z,18.30
2023-09-15T02:29:00.402Z,18.20
2023-09-15T02:31:27.238Z,18.20
2023-09-15T02:33:54.062Z,18.20
2023-09-15T02:36:20.882Z,18.20
2023-09-15T02:38:48.160Z,18.10
2023-09-15T02:41:14.990Z,18.10
2023-09-15T02:43:41.669Z,18.10
2023-09-15T02:46:08.414Z,18.10
2023-09-15T02:48:35.210Z,18.10
2023-09-15T02:51:02.272Z,18.00
2023-09-15T02:53:30.134Z,18.00
2023-09-15T02:56:01.813Z,18.00
2023-09-15T02:58:28.654Z,17.90
2023-09-15T03:00:55.947Z,17.90
2023-09-15T03:03:25.674Z,17.90
2023-09-15T03:06:06.960Z,17.90
2023-09-15T03:08:34.837Z,17.90
2023-09-15T03:11:01.553Z,17.80
2023-09-15T03:13:28.271Z,17.80
2023-09-15T03:15:55.455Z,17.80
2023-09-15T03:18:22.854Z,17.70
2023-09-15T03:20:49.612Z,17.70
2023-09-15T03:23:16.830Z,17.70
2023-09-15T03:25:43.600Z,17.70
2023-09-15T03:28:11.870Z,17.70
2023-09-15T03:30:41.372Z,17.60
2023-09-15T03:33:09.016Z,17.60
2023-09-15T03:35:35.902Z,17.60
2023-09-15T03:38:03.385Z,17.60
2023-09-15T03:40:31.190Z,17.50
2023-09-15T03:42:58.019Z,17.50
2023-09-15T03:45:24.739Z,17.50
2023-09-15T03:47:51.497Z,17.50
2023-09-15T03:50:20.994Z,17.50
2023-09-15T03:52:48.314Z,17.50
2023-09-15T03:55:15.364Z,17.40
2023-09-15T03:57:42.162Z,17.40
2023-09-15T04:00:16.591Z,17.40
2023-09-15T04:02:43.374Z,17.40
2023-09-15T04:05:11.311Z,17.30
2023-09-15T04:07:39.256Z,17.30
2023-09-15T04:10:06.954Z,17.30
2023-09-15T04:12:35.298Z,17.30
2023-09-15T04:15:02.085Z,17.30
2023-09-15T04:17:28.791Z,17.20
2023-09-15T04:19:55.465Z,17.20
2023-09-15T04:22:22.189Z,17.20
2023-09-15T04:24:49.010Z,17.20
2023-09-15T04:27:15.718Z,17.20
2023-09-15T04:29:54.406Z,17.10
2023-09-15T04:32:21.185Z,17.10
2023-09-15T04:34:48.199Z,17.10
2023-09-15T04:37:14.898Z,17.10
2023-09-15T04:39:42.334Z,17.10
2023-09-15T04:42:11.566Z,17.00
2023-09-15T04:44:38.264Z,17.00
2023-09-15T04:47:05.464Z,17.00
2023-09-15T04:49:32.286Z,17.00
2023-09-15T04:51:59.452Z,17.00
2023-09-15T04:54:30.344Z,17.00
2023-09-15T04:56:57.771Z,17.00
2023-09-15T04:59:26.600Z,16.90
2023-09-15T05:01:53.741Z,16.90
2023-09-15T05:04:21.654Z,16.90
2023-09-15T05:06:48.581Z,16.90
2023-09-15T05:09:21.490Z,16.90
2023-09-15T05:11:48.331Z,16.90
2023-09-15T05:14:15.545Z,16.80
2023-09-15T05:16:42.355Z,16.80
2023-09-15T05:19:09.200Z,16.80
2023-09-15T05:21:36.726Z,16.80
2023-09-15T05:24:03.583Z,16.70
2023-09-15T05:26:30.286Z,16.70
2023-09-15T05:28:57.030Z,16.70
2023-09-15T05:31:27.510Z,16.70
2023-09-15T05:33:56.089Z,16.60
2023-09-15T05:36:23.096Z,16.60
2023-09-15T05:38:50.222Z,16.60
2023-09-15T05:41:17.253Z,16.60
2023-09-15T05:43:44.004Z,16.60
2023-09-15T05:46:10.988Z,16.60
2023-09-15T05:48:37.865Z,16.60
2023-09-15T05:51:05.374Z,16.50
2023-09-15T05:53:32.919Z,16.50
2023-09-15T05:55:59.716Z,16.50
2023-09-15T05:58:27.075Z,16.60
2023-09-15T06:00:56.661Z,16.50
2023-09-15T06:03:24.199Z,16.50
2023-09-15T06:05:50.986Z,16.50
2023-09-15T06:08:20.080Z,16.40
2023-09-15T06:10:48.500Z,16.40
2023-09-15T06:13:16.043Z,16.40
2023-09-15T06:15:43.176Z,16.40
2023-09-15T06:18:10.016Z,16.40
2023-09-15T06:20:36.740Z,16.40
2023-09-15T06:23:04.072Z,16.50
2023-09-15T06:25:33.800Z,16.40
2023-09-15T06:28:14.999Z,16.40
2023-09-15T06:30:46.813Z,16.40
2023-09-15T06:33:13.637Z,16.40
2023-09-15T06:35:40.348Z,16.40
2023-09-15T06:38:08.016Z,16.40
2023-09-15T06:40:36.385Z,16.40
2023-09-15T06:43:05.793Z,16.40
2023-09-15T06:45:32.972Z,16.50
2023-09-15T06:48:03.074Z,16.50
2023-09-15T06:50:29.872Z,16.60
2023-09-15T06:52:56.555Z,16.60
2023-09-15T06:55:23.360Z,16.60
2023-09-15T06:57:50.116Z,16.60
2023-09-15T07:00:17.032Z,16.70
2023-09-15T07:02:43.790Z,16.70
2023-09-15T07:05:12.050Z,16.70
2023-09-15T07:07:38.961Z,16.70
2023-09-15T07:10:06.665Z,16.80
2023-09-15T07:12:33.425Z,16.80
2023-09-15T07:15:04.462Z,16.90
2023-09-15T07:17:31.355Z,17.00
2023-09-15T07:19:58.227Z,17.00
2023-09-15T07:22:25.822Z,17.00
2023-09-15T07:24:53.054Z,17.10
2023-09-15T07:27:19.853Z,17.10
2023-09-15T07:29:46.592Z,17.20
2023-09-15T07:32:13.409Z,17.20
2023-09-15T07:34:40.099Z,17.30
2023-09-15T07:37:07.395Z,17.30
2023-09-15T07:39:34.264Z,17.40
2023-09-15T07:42:01.003Z,17.40
2023-09-15T07:44:27.688Z,17.50
2023-09-15T07:46:54.609Z,17.50
2023-09-15T07:49:21.431Z,17.60
2023-09-15T07:51:50.095Z,17.60
2023-09-15T07:54:16.784Z,17.70
2023-09-15T07:56:43.528Z,17.70
2023-09-15T07:59:10.298Z,17.80
2023-09-15T08:01:37.078Z,17.80
2023-09-15T08:04:04.085Z,17.90
2023-09-15T08:06:30.947Z,18.00
2023-09-15T08:08:57.904Z,18.00
2023-09-15T08:11:24.792Z,18.20
2023-09-15T08:13:51.507Z,18.20
2023-09-15T08:16:18.297Z,18.30
2023-09-15T08:21:22.407Z,18.40
2023-09-15T08:23:50.511Z,18.50
2023-09-15T08:26:18.495Z,18.60
2023-09-15T08:28:45.333Z,18.70
2023-09-15T08:31:12.115Z,18.70
2023-09-15T08:33:38.871Z,18.80
2023-09-15T08:36:05.783Z,18.90
2023-09-15T08:38:33.342Z,19.00
2023-09-15T08:41:04.902Z,19.10
2023-09-15T08:43:34.243Z,19.20
2023-09-15T08:46:02.231Z,19.30
2023-09-15T08:48:31.224Z,19.40
2023-09-15T08:50:59.962Z,19.50
2023-09-15T08:53:26.957Z,19.60
2023-09-15T08:55:53.678Z,19.60
2023-09-15T08:58:21.539Z,19.70
2023-09-15T09:00:48.340Z,19.90
2023-09-15T09:03:15.267Z,20.00
2023-09-15T09:05:46.872Z,20.00
2023-09-15T09:08:14.262Z,20.10
2023-09-15T09:10:41.300Z,20.30
2023-09-15T09:13:08.037Z,20.30
2023-09-15T09:15:35.410Z,20.40
2023-09-15T09:18:02.304Z,20.50
2023-09-15T09:20:29.591Z,20.60
2023-09-15T09:22:56.426Z,20.70
2023-09-15T09:25:28.091Z,20.80
2023-09-15T09:27:56.571Z,20.90
2023-09-15T09:30:25.592Z,21.00
2023-09-15T09:32:52.353Z,21.20
2023-09-15T09:35:19.234Z,21.30
2023-09-15T09:37:46.330Z,21.40
2023-09-15T09:40:13.128Z,21.40
2023-09-15T09:42:39.923Z,21.50
2023-09-15T09:45:07.164Z,21.70
2023-09-15T09:47:34.013Z,21.70
2023-09-15T09:50:04.885Z,21.80
2023-09-15T09:52:31.606Z,22.00
2023-09-15T09:55:01.626Z,22.10
2023-09-15T09:57:28.437Z,22.20
2023-09-15T09:59:55.343Z,22.30
2023-09-15T10:02:22.132Z,22.40
2023-09-15T10:04:48.957Z,22.40
2023-09-15T10:07:15.936Z,22.50
2023-09-15T10:09:42.965Z,22.60
2023-09-15T10:12:11.264Z,22.70
2023-09-15T10:14:38.365Z,22.80
2023-09-15T10:17:05.038Z,22.90
2023-09-15T10:19:31.878Z,23.00
2023-09-15T10:21:58.874Z,23.10
2023-09-15T10:24:28.207Z,23.20
2023-09-15T10:26:55.033Z,23.30
2023-09-15T10:29:22.341Z,23.40
2023-09-15T10:31:49.437Z,23.50
2023-09-15T10:34:17.561Z,23.60
2023-09-15T10:36:46.222Z,23.70
2023-09-15T10:39:16.374Z,23.80
2023-09-15T10:41:43.218Z,23.90
2023-09-15T10:44:10.354Z,24.00
2023-09-15T10:46:41.529Z,24.10
2023-09-15T10:49:18.368Z,24.20
2023-09-15T10:51:52.639Z,24.30
2023-09-15T10:54:20.726Z,24.30
2023-09-15T10:56:48.653Z,24.50
2023-09-15T10:59:17.506Z,24.50
2023-09-15T11:01:45.295Z,24.60
2023-09-15T11:04:21.893Z,24.80
2023-09-15T11:06:50.255Z,24.80
2023-09-15T11:09:17.836Z,24.90
2023-09-15T11:11:48.580Z,25.00
2023-09-15T11:14:19.893Z,25.10
2023-09-15T11:16:51.472Z,25.20
2023-09-15T11:19:19.155Z,25.30
2023-09-15T11:21:47.084Z,25.40
2023-09-15T11:24:14.518Z,25.40
2023-09-15T11:26:52.384Z,25.50
2023-09-15T11:29:26.467Z,25.60
2023-09-15T11:31:54.196Z,25.70
2023-09-15T11:34:21.623Z,25.80
2023-09-15T11:36:48.818Z,25.80
2023-09-15T11:39:16.672Z,26.00
2023-09-15T11:41:57.309Z,26.00
2023-09-15T11:44:31.121Z,26.10
2023-09-15T11:47:00.340Z,26.20
2023-09-15T11:49:27.805Z,26.30
2023-09-15T11:51:59.195Z,26.30
2023-09-15T11:54:26.893Z,26.50
2023-09-15T11:56:57.993Z,26.60
2023-09-15T11:59:25.760Z,26.70
2023-09-15T12:01:59.430Z,26.70
2023-09-15T12:04:26.554Z,26.80
2023-09-15T12:06:53.926Z,26.90
2023-09-15T12:09:21.335Z,27.00
2023-09-15T12:11:48.201Z,27.10
2023-09-15T12:14:16.065Z,27.20
2023-09-15T12:16:47.273Z,27.30
2023-09-15T12:19:14.568Z,27.40
2023-09-15T12:21:54.183Z,27.50
2023-09-15T12:24:25.104Z,27.50
2023-09-15T12:26:52.263Z,27.60
2023-09-15T12:29:19.199Z,27.70
2023-09-15T12:31:45.920Z,27.80
2023-09-15T12:34:21.270Z,27.80
2023-09-15T12:36:50.100Z,28.00
2023-09-15T12:39:17.612Z,28.10
2023-09-15T12:41:44.376Z,28.20
2023-09-15T12:44:13.944Z,28.30
2023-09-15T12:46:40.967Z,28.40
2023-09-15T12:49:07.864Z,28.40
2023-09-15T12:51:34.744Z,28.50
2023-09-15T12:54:01.516Z,28.60
2023-09-15T12:56:28.304Z,28.70
2023-09-15T12:58:56.295Z,28.70
2023-09-15T13:01:23.183Z,28.90
2023-09-15T13:03:50.693Z,28.90
2023-09-15T13:06:17.784Z,29.00
2023-09-15T13:08:44.543Z,29.10
2023-09-15T13:11:11.290Z,29.20
2023-09-15T13:13:38.230Z,29.30
2023-09-15T13:16:05.002Z,29.40
2023-09-15T13:18:31.782Z,29.50
2023-09-15T13:20:58.579Z,29.60
2023-09-15T13:23:25.288Z,29.80
2023-09-15T13:25:52.100Z,29.80
2023-09-15T13:28:18.881Z,29.90
2023-09-15T13:30:45.707Z,30.00
2023-09-15T13:33:12.566Z,30.10
2023-09-15T13:35:39.286Z,30.10
2023-09-15T13:38:06.165Z,30.20
2023-09-15T13:40:33.007Z,30.30
2023-09-15T13:42:59.932Z,30.40
2023-09-15T13:45:27.395Z,30.50
2023-09-15T13:47:54.185Z,30.60
2023-09-15T13:50:21.334Z,30.70
2023-09-15T13:52:50.541Z,30.70
2023-09-15T13:55:17.843Z,30.80
2023-09-15T13:57:45.306Z,30.80
2023-09-15T14:00:12.434Z,30.90
2023-09-15T14:02:39.805Z,31.00
2023-09-15T14:05:09.912Z,31.10
2023-09-15T14:07:36.968Z,31.20
2023-09-15T14:10:03.960Z,31.20
2023-09-15T14:12:30.753Z,31.30
2023-09-15T14:14:57.503Z,31.30
2023-09-15T14:17:26.927Z,31.40
2023-09-15T14:19:54.778Z,31.40
2023-09-15T14:22:21.591Z,31.40
2023-09-15T14:24:49.067Z,31.50
2023-09-15T14:27:15.829Z,31.50
2023-09-15T14:29:44.459Z,31.50
2023-09-15T14:32:11.399Z,31.50
2023-09-15T14:34:41.108Z,31.50
2023-09-15T14:37:07.802Z,31.50
2023-09-15T14:39:34.546Z,31.60
2023-09-15T14:42:01.240Z,31.60
2023-09-15T14:44:27.912Z,31.60
2023-09-15T14:46:55.375Z,31.60
2023-09-15T14:49:25.705Z,31.60
2023-09-15T14:51:52.610Z,31.60
2023-09-15T14:54:21.911Z,31.60
2023-09-15T14:56:48.685Z,31.60
2023-09-15T14:59:15.358Z,31.60
2023-09-15T15:01:42.113Z,31.60
2023-09-15T15:04:09.429Z,31.70
2023-09-15T15:06:36.974Z,31.70
2023-09-15T15:09:05.165Z,31.70
2023-09-15T15:11:31.942Z,31.70
2023-09-15T15:13:58.722Z,31.80
2023-09-15T15:16:25.786Z,31.80
2023-09-15T15:19:02.749Z,31.90
2023-09-15T15:21:33.295Z,31.90
2023-09-15T15:24:00.378Z,32.00
2023-09-15T15:26:28.080Z,32.00
2023-09-15T15:28:54.958Z,32.00
2023-09-15T15:31:21.708Z,32.00
2023-09-15T15:33:48.612Z,32.00
2023-09-15T15:36:15.585Z,32.10
2023-09-15T15:38:42.505Z,32.20
2023-09-15T15:41:10.585Z,32.20
2023-09-15T15:43:39.419Z,32.20
2023-09-15T15:46:07.586Z,32.20
2023-09-15T15:48:36.347Z,32.20
2023-09-15T15:51:04.449Z,32.30
2023-09-15T15:53:32.270Z,32.30
2023-09-15T15:56:00.852Z,32.40
2023-09-15T15:58:27.939Z,32.40
2023-09-15T16:00:55.026Z,32.40
2023-09-15T16:03:23.605Z,32.40
2023-09-15T16:05:55.113Z,32.40
2023-09-15T16:08:22.416Z,32.30
2023-09-15T16:10:49.429Z,32.30
2023-09-15T16:13:16.203Z,32.30
2023-09-15T16:15:50.068Z,32.20
2023-09-15T16:18:29.575Z,32.30
2023-09-15T16:20:58.553Z,32.20
2023-09-15T16:23:25.338Z,32.10
2023-09-15T16:25:52.057Z,32.00
2023-09-15T16:28:19.183Z,32.00
2023-09-15T16:30:46.145Z,31.90
2023-09-15T16:33:13.768Z,31.90
2023-09-15T16:35:43.118Z,31.80
2023-09-15T16:38:10.256Z,31.70
2023-09-15T16:40:37.957Z,31.60
2023-09-15T16:43:05.831Z,31.60
2023-09-15T16:45:33.837Z,31.50
2023-09-15T16:48:01.445Z,31.50
2023-09-15T16:50:28.737Z,31.40
2023-09-15T16:52:56.838Z,31.40
2023-09-15T16:55:23.774Z,31.30
2023-09-15T16:57:52.453Z,31.20
2023-09-15T17:00:19.404Z,31.20
2023-09-15T17:02:46.393Z,31.10
2023-09-15T17:05:16.113Z,31.00
2023-09-15T17:07:42.881Z,30.90
2023-09-15T17:10:13.410Z,30.90
2023-09-15T17:12:41.764Z,30.80
2023-09-15T17:15:09.499Z,30.70
2023-09-15T17:17:36.481Z,30.70
2023-09-15T17:20:03.548Z,30.60
2023-09-15T17:22:30.878Z,30.50
2023-09-15T17:24:58.536Z,30.50
2023-09-15T17:27:25.406Z,30.40
2023-09-15T17:29:52.170Z,30.30
2023-09-15T17:32:18.926Z,30.30
2023-09-15T17:34:47.007Z,30.20
2023-09-15T17:37:16.029Z,30.20
2023-09-15T17:39:50.327Z,30.10
2023-09-15T17:42:20.257Z,29.90
2023-09-15T17:44:47.145Z,29.80
2023-09-15T17:47:13.943Z,29.70
2023-09-15T17:49:44.200Z,29.70
2023-09-15T17:52:13.627Z,29.60
2023-09-15T17:54:40.352Z,29.50
2023-09-15T17:57:07.087Z,29.50
2023-09-15T17:59:34.422Z,29.40
2023-09-15T18:02:01.135Z,29.40
2023-09-15T18:04:27.810Z,29.30
2023-09-15T18:06:54.521Z,29.20
2023-09-15T18:09:21.351Z,29.20
2023-09-15T18:11:48.399Z,29.10
2023-09-15T18:14:15.431Z,29.10
2023-09-15T18:16:42.248Z,29.00
2023-09-15T18:19:09.003Z,29.00
2023-09-15T18:21:35.753Z,28.90
2023-09-15T18:24:02.901Z,28.80
2023-09-15T18:26:29.664Z,28.80
2023-09-15T18:32:44.586Z,28.60
2023-09-15T18:35:11.388Z,28.60
2023-09-15T18:37:38.120Z,28.50
2023-09-15T18:40:05.448Z,28.50
2023-09-15T18:42:32.174Z,28.40
2023-09-15T18:44:58.932Z,28.40
2023-09-15T18:47:25.643Z,28.30
2023-09-15T18:53:40.442Z,28.20
2023-09-15T18:56:07.112Z,28.20
2023-09-15T18:58:33.919Z,28.10
2023-09-15T19:01:02.984Z,28.00
2023-09-15T19:03:30.285Z,28.00
2023-09-15T19:05:57.022Z,27.90
2023-09-15T19:08:24.705Z,27.90
2023-09-15T19:10:51.516Z,27.80
2023-09-15T19:13:32.434Z,27.70
2023-09-15T19:16:00.596Z,27.80
2023-09-15T19:18:28.148Z,27.70
2023-09-15T19:20:56.657Z,27.60
2023-09-15T19:23:23.341Z,27.50
2023-09-15T19:25:50.157Z,27.50
2023-09-15T19:28:16.841Z,27.40
2023-09-15T19:30:43.607Z,27.40
2023-09-15T19:33:10.680Z,27.30
2023-09-15T19:35:38.225Z,27.30
2023-09-15T19:38:04.990Z,27.20
2023-09-15T19:40:32.668Z,27.20
2023-09-15T19:43:08.036Z,27.10
2023-09-15T19:45:34.989Z,27.10
2023-09-15T19:48:01.810Z,27.00
2023-09-15T19:50:28.565Z,27.00
2023-09-15T19:52:55.309Z,26.90
2023-09-15T19:55:23.492Z,26.90
2023-09-15T19:57:53.908Z,26.90
2023-09-15T20:00:20.916Z,26.80
2023-09-15T20:02:48.766Z,26.80
2023-09-15T20:05:15.948Z,26.70
2023-09-15T20:07:43.115Z,26.70
2023-09-15T20:10:10.512Z,26.60
2023-09-15T20:12:37.588Z,26.60
2023-09-15T20:15:07.245Z,26.50
2023-09-15T20:17:41.229Z,26.50
2023-09-15T20:20:09.848Z,26.40
2023-09-15T20:22:37.098Z,26.40
2023-09-15T20:25:05.300Z,26.30
2023-09-15T20:27:32.869Z,26.30
2023-09-15T20:29:59.758Z,26.20
2023-09-15T20:32:29.775Z,26.20
2023-09-15T20:34:56.743Z,26.10
2023-09-15T20:37:25.187Z,26.10
2023-09-15T20:39:52.340Z,26.00
2023-09-15T20:42:19.648Z,26.00
2023-09-15T20:44:47.278Z,25.90
2023-09-15T20:47:15.186Z,25.90
2023-09-15T20:49:42.052Z,25.80
2023-09-15T20:52:09.466Z,25.60
2023-09-15T20:54:36.640Z,25.70
2023-09-15T20:57:04.332Z,25.70
2023-09-15T20:59:31.071Z,25.70
2023-09-15T21:01:58.176Z,25.60
2023-09-15T21:04:25.012Z,25.60
2023-09-15T21:06:51.976Z,25.50
2023-09-15T21:09:19.518Z,25.50
2023-09-15T21:11:47.556Z,25.40
2023-09-15T21:14:14.327Z,25.40
2023-09-15T21:16:41.215Z,25.40
2023-09-15T21:19:09.405Z,25.30
2023-09-15T21:21:36.601Z,25.30
2023-09-15T21:24:03.696Z,25.20
2023-09-15T21:26:30.483Z,25.20
2023-09-15T21:28:57.225Z,25.10
2023-09-15T21:31:24.101Z,25.10
2023-09-15T21:33:50.943Z,25.00
2023-09-15T21:36:17.921Z,25.00
2023-09-15T21:38:44.754Z,24.80
2023-09-15T21:41:11.687Z,25.00
2023-09-15T21:43:38.459Z,24.90
2023-09-15T21:46:05.276Z,24.80
2023-09-15T21:48:32.159Z,24.80
2023-09-15T21:51:01.040Z,24.80
2023-09-15T21:53:27.820Z,24.70
2023-09-15T21:55:55.920Z,24.70
2023-09-15T21:58:22.648Z,24.60
2023-09-15T22:00:49.870Z,24.60
2023-09-15T22:03:16.655Z,24.60
2023-09-15T22:05:43.407Z,24.50
2023-09-15T22:08:10.104Z,24.50
2023-09-15T22:10:36.814Z,24.40
2023-09-15T22:13:04.484Z,24.40
2023-09-15T22:15:31.260Z,24.30
2023-09-15T22:17:58.639Z,24.30
2023-09-15T22:20:28.250Z,24.30
2023-09-15T22:22:56.682Z,24.20
2023-09-15T22:25:27.134Z,24.20
2023-09-15T22:27:54.855Z,24.10
2023-09-15T22:30:22.543Z,24.10
2023-09-15T22:32:49.643Z,24.10
2023-09-15T22:35:16.733Z,24.00
2023-09-15T22:37:45.074Z,23.90
2023-09-15T22:40:12.515Z,23.90
2023-09-15T22:42:40.414Z,23.90
2023-09-15T22:45:17.582Z,23.80
2023-09-15T22:47:45.384Z,23.80
2023-09-15T22:50:15.115Z,23.70
2023-09-15T22:52:41.972Z,23.70
2023-09-15T22:55:12.247Z,23.60
2023-09-15T22:57:39.503Z,23.60
2023-09-15T23:00:13.796Z,23.60
2023-09-15T23:02:46.738Z,23.60
2023-09-15T23:05:13.553Z,23.50
2023-09-15T23:07:40.685Z,23.50
2023-09-15T23:10:08.541Z,23.40
2023-09-15T23:12:35.499Z,23.40
2023-09-15T23:15:02.739Z,23.40
2023-09-15T23:17:29.683Z,23.30
2023-09-15T23:19:56.478Z,23.30
2023-09-15T23:22:23.354Z,23.20
2023-09-15T23:24:52.012Z,23.20
2023-09-15T23:27:19.029Z,23.10
2023-09-15T23:29:46.254Z,23.10
2023-09-15T23:32:13.189Z,23.10
2023-09-15T23:34:40.302Z,23.10
2023-09-15T23:37:07.209Z,23.00
2023-09-15T23:39:36.238Z,23.00
2023-09-15T23:42:04.121Z,23.00
2023-09-15T23:44:30.885Z,22.90
2023-09-15T23:46:57.846Z,22.90
2023-09-15T23:49:24.858Z,22.80
2023-09-15T23:51:52.267Z,22.80
2023-09-15T23:54:19.178Z,22.80
2023-09-15T23:56:46.226Z,22.70
2023-09-15T23:59:13.268Z,22.70
